sensor_id;sensor_type;location;lat;lon;timestamp;temperature;humidity
2851;DHT22;1433;49.976;8.342;2023-03-11T00:02:19;2.50;99.90
2851;DHT22;1433;49.976;8.342;2023-03-11T00:04:45;2.50;99.90
2851;DHT22;1433;49.976;8.342;2023-03-11T00:07:11;2.50;99.90
2851;DHT22;1433;49.976;8.342;2023-03-11T00:09:38;2.50;1.00
2851;DHT22;1433;49.976;8.342;2023-03-11T00:12:05;2.60;1.00
2851;DHT22;1433;49.976;8.342;2023-03-11T00:14:31;2.60;99.90
2851;DHT22;1433;49.976;8.342;2023-03-11T00:16:58;2.50;99.90
2851;DHT22;1433;49.976;8.342;2023-03-11T00:19:24;2.60;1.00
2851;DHT22;1433;49.976;8.342;2023-03-11T00:21:50;2.60;1.00
2851;DHT22;1433;49.976;8.342;2023-03-11T00:24:17;2.60;1.00
2851;DHT22;1433;49.976;8.342;2023-03-11T00:26:43;2.60;1.00
2851;DHT22;1433;49.976;8.342;2023-03-11T00:29:09;2.70;1.00
2851;DHT22;1433;49.976;8.342;2023-03-11T00:31:35;2.70;1.00
2851;DHT22;1433;49.976;8.342;2023-03-11T00:34:02;2.70;1.00
2851;DHT22;1433;49.976;8.342;2023-03-11T00:36:31;2.70;1.00
2851;DHT22;1433;49.976;8.342;2023-03-11T00:39:03;2.60;1.00
2851;DHT22;1433;49.976;8.342;2023-03-11T00:41:34;2.60;85.30
2851;DHT22;1433;49.976;8.342;2023-03-11T00:44:01;2.50;56.80
2851;DHT22;1433;49.976;8.342;2023-03-11T00:46:29;2.50;99.90
2851;DHT22;1433;49.976;8.342;2023-03-11T00:48:56;2.40;99.90
2851;DHT22;1433;49.976;8.342;2023-03-11T00:51:22;2.40;99.90
2851;DHT22;1433;49.976;8.342;2023-03-11T00:53:48;2.40;99.90
2851;DHT22;1433;49.976;8.342;2023-03-11T00:56:15;2.40;99.90
2851;DHT22;1433;49.976;8.342;2023-03-11T00:58:43;2.50;99.90
2851;DHT22;1433;49.976;8.342;2023-03-11T01:01:12;2.50;99.90
2851;DHT22;1433;49.976;8.342;2023-03-11T01:03:43;2.50;99.90
2851;DHT22;1433;49.976;8.342;2023-03-11T01:06:10;2.60;99.90
2851;DHT22;1433;49.976;8.342;2023-03-11T01:08:37;2.60;99.90
2851;DHT22;1433;49.976;8.342;2023-03-11T01:11:06;2.60;99.90
2851;DHT22;1433;49.976;8.342;2023-03-11T01:13:34;2.60;99.90
2851;DHT22;1433;49.976;8.342;2023-03-11T01:16:00;2.60;99.90
2851;DHT22;1433;49.976;8.342;2023-03-11T01:18:27;2.70;99.90
2851;DHT22;1433;49.976;8.342;2023-03-11T01:20:56;2.60;99.90
2851;DHT22;1433;49.976;8.342;2023-03-11T01:23:22;2.60;99.90
2851;DHT22;1433;49.976;8.342;2023-03-11T01:25:48;2.40;99.90
2851;DHT22;1433;49.976;8.342;2023-03-11T01:28:14;2.30;99.90
2851;DHT22;1433;49.976;8.342;2023-03-11T01:30:41;2.20;99.90
2851;DHT22;1433;49.976;8.342;2023-03-11T01:33:13;2.20;99.90
2851;DHT22;1433;49.976;8.342;2023-03-11T01:35:38;2.30;99.90
2851;DHT22;1433;49.976;8.342;2023-03-11T01:38:07;2.30;99.90
2851;DHT22;1433;49.976;8.342;2023-03-11T01:40:36;2.40;99.90
2851;DHT22;1433;49.976;8.342;2023-03-11T01:43:33;2.40;99.90
2851;DHT22;1433;49.976;8.342;2023-03-11T01:48:21;2.50;99.90
2851;DHT22;1433;49.976;8.342;2023-03-11T01:50:49;2.50;99.90
2851;DHT22;1433;49.976;8.342;2023-03-11T01:53:19;2.60;99.90
2851;DHT22;1433;49.976;8.342;2023-03-11T01:55:47;2.60;99.90
2851;DHT22;1433;49.976;8.342;2023-03-11T01:58:20;2.60;99.90
2851;DHT22;1433;49.976;8.342;2023-03-11T02:00:47;2.60;99.90
2851;DHT22;1433;49.976;8.342;2023-03-11T02:03:20;2.60;99.90
2851;DHT22;1433;49.976;8.342;2023-03-11T02:05:46;2.60;99.90
2851;DHT22;1433;49.976;8.342;2023-03-11T02:08:13;2.60;99.90
2851;DHT22;1433;49.976;8.342;2023-03-11T02:10:41;2.60;99.90
2851;DHT22;1433;49.976;8.342;2023-03-11T02:13:09;2.60;99.90
2851;DHT22;1433;49.976;8.342;2023-03-11T02:15:37;2.60;99.90
2851;DHT22;1433;49.976;8.342;2023-03-11T02:18:05;2.60;99.90
2851;DHT22;1433;49.976;8.342;2023-03-11T02:20:47;2.60;99.90
2851;DHT22;1433;49.976;8.342;2023-03-11T02:23:15;2.50;99.90
2851;DHT22;1433;49.976;8.342;2023-03-11T02:25:50;2.50;99.90
2851;DHT22;1433;49.976;8.342;2023-03-11T02:28:16;2.50;99.90
2851;DHT22;1433;49.976;8.342;2023-03-11T02:30:44;2.50;99.90
2851;DHT22;1433;49.976;8.342;2023-03-11T02:33:12;2.50;99.90
2851;DHT22;1433;49.976;8.342;2023-03-11T02:35:41;2.50;99.90
2851;DHT22;1433;49.976;8.342;2023-03-11T02:38:09;2.50;99.90
2851;DHT22;1433;49.976;8.342;2023-03-11T02:40:45;2.50;99.90
2851;DHT22;1433;49.976;8.342;2023-03-11T02:43:13;2.50;99.90
2851;DHT22;1433;49.976;8.342;2023-03-11T02:45:43;2.50;99.90
2851;DHT22;1433;49.976;8.342;2023-03-11T02:48:11;2.50;99.90
2851;DHT22;1433;49.976;8.342;2023-03-11T02:50:39;2.50;99.90
2851;DHT22;1433;49.976;8.342;2023-03-11T02:53:07;2.60;99.90
2851;DHT22;1433;49.976;8.342;2023-03-11T02:55:33;2.60;99.90
2851;DHT22;1433;49.976;8.342;2023-03-11T02:57:59;2.60;99.90
2851;DHT22;1433;49.976;8.342;2023-03-11T03:00:25;2.60;99.90
2851;DHT22;1433;49.976;8.342;2023-03-11T03:02:54;2.70;99.90
2851;DHT22;1433;49.976;8.342;2023-03-11T03:05:21;2.70;99.90
2851;DHT22;1433;49.976;8.342;2023-03-11T03:07:48;2.70;99.90
2851;DHT22;1433;49.976;8.342;2023-03-11T03:10:18;2.60;99.90
2851;DHT22;1433;49.976;8.342;2023-03-11T03:12:45;2.50;99.90
2851;DHT22;1433;49.976;8.342;2023-03-11T03:15:12;2.50;99.90
2851;DHT22;1433;49.976;8.342;2023-03-11T03:17:40;2.50;99.90
2851;DHT22;1433;49.976;8.342;2023-03-11T03:20:08;2.40;99.90
2851;DHT22;1433;49.976;8.342;2023-03-11T03:22:38;2.40;99.90
2851;DHT22;1433;49.976;8.342;2023-03-11T03:25:05;2.40;99.90
2851;DHT22;1433;49.976;8.342;2023-03-11T03:27:32;2.40;99.90
2851;DHT22;1433;49.976;8.342;2023-03-11T03:29:59;2.40;99.90
2851;DHT22;1433;49.976;8.342;2023-03-11T03:32:26;2.40;99.90
2851;DHT22;1433;49.976;8.342;2023-03-11T03:34:52;2.30;99.90
2851;DHT22;1433;49.976;8.342;2023-03-11T03:37:21;2.30;99.90
2851;DHT22;1433;49.976;8.342;2023-03-11T03:39:47;2.40;99.90
2851;DHT22;1433;49.976;8.342;2023-03-11T03:42:14;2.40;99.90
2851;DHT22;1433;49.976;8.342;2023-03-11T03:44:40;2.40;99.90
2851;DHT22;1433;49.976;8.342;2023-03-11T03:47:08;2.40;99.90
2851;DHT22;1433;49.976;8.342;2023-03-11T03:49:35;2.40;99.90
2851;DHT22;1433;49.976;8.342;2023-03-11T03:52:06;2.40;99.90
2851;DHT22;1433;49.976;8.342;2023-03-11T03:54:33;2.40;99.90
2851;DHT22;1433;49.976;8.342;2023-03-11T03:57:00;2.40;99.90
2851;DHT22;1433;49.976;8.342;2023-03-11T03:59:28;2.40;99.90
2851;DHT22;1433;49.976;8.342;2023-03-11T04:01:56;2.40;99.90
2851;DHT22;1433;49.976;8.342;2023-03-11T04:04:22;2.40;99.90
2851;DHT22;1433;49.976;8.342;2023-03-11T04:06:50;2.40;99.90
2851;DHT22;1433;49.976;8.342;2023-03-11T04:09:17;2.40;99.90
2851;DHT22;1433;49.976;8.342;2023-03-11T04:11:44;2.40;99.90
2851;DHT22;1433;49.976;8.342;2023-03-11T04:14:12;2.40;99.90
2851;DHT22;1433;49.976;8.342;2023-03-11T04:16:40;2.40;99.90
2851;DHT22;1433;49.976;8.342;2023-03-11T04:19:09;2.40;99.90
2851;DHT22;1433;49.976;8.342;2023-03-11T04:21:36;2.40;99.90
2851;DHT22;1433;49.976;8.342;2023-03-11T04:24:03;2.30;99.90
2851;DHT22;1433;49.976;8.342;2023-03-11T04:26:31;2.30;99.90
2851;DHT22;1433;49.976;8.342;2023-03-11T04:28:58;2.30;99.90
2851;DHT22;1433;49.976;8.342;2023-03-11T04:31:25;2.40;99.90
2851;DHT22;1433;49.976;8.342;2023-03-11T04:33:52;2.40;99.90
2851;DHT22;1433;49.976;8.342;2023-03-11T04:36:20;2.40;99.90
2851;DHT22;1433;49.976;8.342;2023-03-11T04:38:47;2.40;99.90
2851;DHT22;1433;49.976;8.342;2023-03-11T04:41:14;2.40;99.90
2851;DHT22;1433;49.976;8.342;2023-03-11T04:43:42;2.40;99.90
2851;DHT22;1433;49.976;8.342;2023-03-11T04:46:08;2.40;99.90
2851;DHT22;1433;49.976;8.342;2023-03-11T04:48:35;2.30;99.90
2851;DHT22;1433;49.976;8.342;2023-03-11T04:51:01;2.30;99.90
2851;DHT22;1433;49.976;8.342;2023-03-11T04:53:28;2.20;99.90
2851;DHT22;1433;49.976;8.342;2023-03-11T04:55:54;2.20;99.90
2851;DHT22;1433;49.976;8.342;2023-03-11T04:58:21;2.10;99.90
2851;DHT22;1433;49.976;8.342;2023-03-11T05:00:47;2.10;99.90
2851;DHT22;1433;49.976;8.342;2023-03-11T05:03:14;2.10;99.90
2851;DHT22;1433;49.976;8.342;2023-03-11T05:05:40;2.00;99.90
2851;DHT22;1433;49.976;8.342;2023-03-11T05:08:07;2.00;99.90
2851;DHT22;1433;49.976;8.342;2023-03-11T05:10:34;2.00;99.90
2851;DHT22;1433;49.976;8.342;2023-03-11T05:13:03;2.00;99.90
2851;DHT22;1433;49.976;8.342;2023-03-11T05:15:31;2.00;99.90
2851;DHT22;1433;49.976;8.342;2023-03-11T05:17:59;2.00;99.90
2851;DHT22;1433;49.976;8.342;2023-03-11T05:20:26;2.00;99.90
2851;DHT22;1433;49.976;8.342;2023-03-11T05:22:52;1.90;99.90
2851;DHT22;1433;49.976;8.342;2023-03-11T05:25:19;1.90;99.90
2851;DHT22;1433;49.976;8.342;2023-03-11T05:27:45;1.90;99.90
2851;DHT22;1433;49.976;8.342;2023-03-11T05:30:12;1.80;99.90
2851;DHT22;1433;49.976;8.342;2023-03-11T05:32:40;1.80;99.90
2851;DHT22;1433;49.976;8.342;2023-03-11T05:35:07;1.70;99.90
2851;DHT22;1433;49.976;8.342;2023-03-11T05:37:34;1.60;99.90
2851;DHT22;1433;49.976;8.342;2023-03-11T05:40:03;1.60;99.90
2851;DHT22;1433;49.976;8.342;2023-03-11T05:42:33;1.60;99.90
2851;DHT22;1433;49.976;8.342;2023-03-11T05:44:59;1.60;99.90
2851;DHT22;1433;49.976;8.342;2023-03-11T05:47:26;1.50;99.90
2851;DHT22;1433;49.976;8.342;2023-03-11T05:49:52;1.40;99.90
2851;DHT22;1433;49.976;8.342;2023-03-11T05:52:18;1.40;99.90
2851;DHT22;1433;49.976;8.342;2023-03-11T05:54:50;1.40;99.90
2851;DHT22;1433;49.976;8.342;2023-03-11T05:57:18;1.30;99.90
2851;DHT22;1433;49.976;8.342;2023-03-11T05:59:44;1.20;99.90
2851;DHT22;1433;49.976;8.342;2023-03-11T06:02:10;1.20;99.90
2851;DHT22;1433;49.976;8.342;2023-03-11T06:04:38;1.20;99.90
2851;DHT22;1433;49.976;8.342;2023-03-11T06:07:04;1.20;99.90
2851;DHT22;1433;49.976;8.342;2023-03-11T06:09:32;1.20;99.90
2851;DHT22;1433;49.976;8.342;2023-03-11T06:12:02;1.20;99.90
2851;DHT22;1433;49.976;8.342;2023-03-11T06:14:30;1.20;99.90
2851;DHT22;1433;49.976;8.342;2023-03-11T06:16:58;1.20;99.90
2851;DHT22;1433;49.976;8.342;2023-03-11T06:19:25;1.20;99.90
2851;DHT22;1433;49.976;8.342;2023-03-11T06:21:51;1.10;99.90
2851;DHT22;1433;49.976;8.342;2023-03-11T06:24:18;1.10;99.90
2851;DHT22;1433;49.976;8.342;2023-03-11T06:26:44;1.20;99.90
2851;DHT22;1433;49.976;8.342;2023-03-11T06:29:13;1.20;99.90
2851;DHT22;1433;49.976;8.342;2023-03-11T06:31:41;1.30;99.90
2851;DHT22;1433;49.976;8.342;2023-03-11T06:34:10;1.40;99.90
2851;DHT22;1433;49.976;8.342;2023-03-11T06:36:36;1.40;99.90
2851;DHT22;1433;49.976;8.342;2023-03-11T06:39:03;1.50;99.90
2851;DHT22;1433;49.976;8.342;2023-03-11T06:41:32;1.50;99.90
2851;DHT22;1433;49.976;8.342;2023-03-11T06:43:58;1.60;99.90
2851;DHT22;1433;49.976;8.342;2023-03-11T06:46:25;1.60;99.90
2851;DHT22;1433;49.976;8.342;2023-03-11T06:48:51;1.70;99.90
2851;DHT22;1433;49.976;8.342;2023-03-11T06:51:19;1.90;99.90
2851;DHT22;1433;49.976;8.342;2023-03-11T06:53:50;2.00;99.90
2851;DHT22;1433;49.976;8.342;2023-03-11T06:56:19;2.10;99.90
2851;DHT22;1433;49.976;8.342;2023-03-11T06:58:48;2.20;99.90
2851;DHT22;1433;49.976;8.342;2023-03-11T07:01:18;2.30;99.90
2851;DHT22;1433;49.976;8.342;2023-03-11T07:03:46;2.30;99.90
2851;DHT22;1433;49.976;8.342;2023-03-11T07:06:16;2.40;1.00
2851;DHT22;1433;49.976;8.342;2023-03-11T07:08:43;2.40;1.00
2851;DHT22;1433;49.976;8.342;2023-03-11T07:11:14;2.50;1.00
2851;DHT22;1433;49.976;8.342;2023-03-11T07:13:41;2.50;1.00
2851;DHT22;1433;49.976;8.342;2023-03-11T07:16:10;2.60;99.90
2851;DHT22;1433;49.976;8.342;2023-03-11T07:18:38;2.60;1.00
2851;DHT22;1433;49.976;8.342;2023-03-11T07:21:06;2.50;1.00
2851;DHT22;1433;49.976;8.342;2023-03-11T07:23:33;2.50;1.00
2851;DHT22;1433;49.976;8.342;2023-03-11T07:26:00;2.60;99.90
2851;DHT22;1433;49.976;8.342;2023-03-11T07:28:27;2.60;1.00
2851;DHT22;1433;49.976;8.342;2023-03-11T07:30:54;2.50;1.00
2851;DHT22;1433;49.976;8.342;2023-03-11T07:33:21;2.50;1.00
2851;DHT22;1433;49.976;8.342;2023-03-11T07:35:49;2.50;1.00
2851;DHT22;1433;49.976;8.342;2023-03-11T07:38:16;2.60;1.00
2851;DHT22;1433;49.976;8.342;2023-03-11T07:40:44;2.60;99.90
2851;DHT22;1433;49.976;8.342;2023-03-11T07:43:10;2.60;1.00
2851;DHT22;1433;49.976;8.342;2023-03-11T07:45:36;2.60;1.00
2851;DHT22;1433;49.976;8.342;2023-03-11T07:48:03;2.70;99.90
2851;DHT22;1433;49.976;8.342;2023-03-11T07:50:29;2.70;78.50
2851;DHT22;1433;49.976;8.342;2023-03-11T07:52:55;2.80;9.40
2851;DHT22;1433;49.976;8.342;2023-03-11T07:55:21;2.90;1.00
2851;DHT22;1433;49.976;8.342;2023-03-11T07:57:48;2.80;1.00
2851;DHT22;1433;49.976;8.342;2023-03-11T08:00:15;3.00;1.00
2851;DHT22;1433;49.976;8.342;2023-03-11T08:02:41;3.10;1.00
2851;DHT22;1433;49.976;8.342;2023-03-11T08:05:09;3.20;1.00
2851;DHT22;1433;49.976;8.342;2023-03-11T08:07:37;3.20;1.00
2851;DHT22;1433;49.976;8.342;2023-03-11T08:10:03;3.20;1.00
2851;DHT22;1433;49.976;8.342;2023-03-11T08:12:30;3.20;1.00
2851;DHT22;1433;49.976;8.342;2023-03-11T08:14:56;3.10;1.00
2851;DHT22;1433;49.976;8.342;2023-03-11T08:17:22;3.00;1.00
2851;DHT22;1433;49.976;8.342;2023-03-11T08:19:48;2.90;1.00
2851;DHT22;1433;49.976;8.342;2023-03-11T08:22:14;2.90;1.00
2851;DHT22;1433;49.976;8.342;2023-03-11T08:24:41;3.00;1.00
2851;DHT22;1433;49.976;8.342;2023-03-11T08:27:07;3.10;1.00
2851;DHT22;1433;49.976;8.342;2023-03-11T08:29:34;3.30;1.00
2851;DHT22;1433;49.976;8.342;2023-03-11T08:32:02;3.30;1.00
2851;DHT22;1433;49.976;8.342;2023-03-11T08:34:28;3.20;1.00
2851;DHT22;1433;49.976;8.342;2023-03-11T08:36:54;3.20;1.00
2851;DHT22;1433;49.976;8.342;2023-03-11T08:39:21;3.40;1.00
2851;DHT22;1433;49.976;8.342;2023-03-11T08:41:48;3.50;99.90
2851;DHT22;1433;49.976;8.342;2023-03-11T08:44:14;3.60;1.00
2851;DHT22;1433;49.976;8.342;2023-03-11T08:46:41;3.70;1.00
2851;DHT22;1433;49.976;8.342;2023-03-11T08:49:08;4.00;1.00
2851;DHT22;1433;49.976;8.342;2023-03-11T08:51:35;4.10;1.00
2851;DHT22;1433;49.976;8.342;2023-03-11T08:54:02;3.80;99.90
2851;DHT22;1433;49.976;8.342;2023-03-11T08:56:29;3.60;1.00
2851;DHT22;1433;49.976;8.342;2023-03-11T08:58:55;3.60;99.90
2851;DHT22;1433;49.976;8.342;2023-03-11T09:01:22;3.70;99.90
2851;DHT22;1433;49.976;8.342;2023-03-11T09:03:48;4.10;1.00
2851;DHT22;1433;49.976;8.342;2023-03-11T09:06:15;4.20;99.90
2851;DHT22;1433;49.976;8.342;2023-03-11T09:08:43;4.20;1.00
2851;DHT22;1433;49.976;8.342;2023-03-11T09:11:09;4.00;1.00
2851;DHT22;1433;49.976;8.342;2023-03-11T09:13:38;3.90;1.00
2851;DHT22;1433;49.976;8.342;2023-03-11T09:16:15;3.90;1.00
2851;DHT22;1433;49.976;8.342;2023-03-11T09:18:38;4.10;99.90
2851;DHT22;1433;49.976;8.342;2023-03-11T09:21:04;4.20;1.00
2851;DHT22;1433;49.976;8.342;2023-03-11T09:23:31;4.20;99.90
2851;DHT22;1433;49.976;8.342;2023-03-11T09:25:57;4.00;99.90
2851;DHT22;1433;49.976;8.342;2023-03-11T09:28:23;4.00;99.90
2851;DHT22;1433;49.976;8.342;2023-03-11T09:30:49;4.10;1.00
2851;DHT22;1433;49.976;8.342;2023-03-11T09:33:16;4.20;99.90
2851;DHT22;1433;49.976;8.342;2023-03-11T09:35:42;4.10;1.00
2851;DHT22;1433;49.976;8.342;2023-03-11T09:38:08;4.00;99.90
2851;DHT22;1433;49.976;8.342;2023-03-11T09:43:34;3.70;99.90
2851;DHT22;1433;49.976;8.342;2023-03-11T09:46:29;3.60;99.90
2851;DHT22;1433;49.976;8.342;2023-03-11T09:51:14;3.70;1.00
2851;DHT22;1433;49.976;8.342;2023-03-11T09:53:41;3.90;99.90
2851;DHT22;1433;49.976;8.342;2023-03-11T09:56:09;4.10;99.90
2851;DHT22;1433;49.976;8.342;2023-03-11T10:03:50;4.20;99.90
2851;DHT22;1433;49.976;8.342;2023-03-11T10:06:28;4.40;99.90
2851;DHT22;1433;49.976;8.342;2023-03-11T10:12:19;4.30;99.90
2851;DHT22;1433;49.976;8.342;2023-03-11T10:20:53;4.60;99.90
2851;DHT22;1433;49.976;8.342;2023-03-11T10:23:36;4.70;99.90
2851;DHT22;1433;49.976;8.342;2023-03-11T10:26:07;4.80;99.90
2851;DHT22;1433;49.976;8.342;2023-03-11T10:28:39;4.90;99.90
2851;DHT22;1433;49.976;8.342;2023-03-11T10:31:30;4.90;99.90
2851;DHT22;1433;49.976;8.342;2023-03-11T10:34:13;5.60;99.90
2851;DHT22;1433;49.976;8.342;2023-03-11T10:36:49;5.80;99.90
2851;DHT22;1433;49.976;8.342;2023-03-11T10:39:13;6.50;99.90
2851;DHT22;1433;49.976;8.342;2023-03-11T10:41:42;6.60;99.90
2851;DHT22;1433;49.976;8.342;2023-03-11T10:46:45;6.70;99.90
2851;DHT22;1433;49.976;8.342;2023-03-11T10:49:13;6.30;99.90
2851;DHT22;1433;49.976;8.342;2023-03-11T10:51:50;5.80;99.90
2851;DHT22;1433;49.976;8.342;2023-03-11T10:57:02;5.20;99.90
2851;DHT22;1433;49.976;8.342;2023-03-11T10:59:37;5.30;99.90
2851;DHT22;1433;49.976;8.342;2023-03-11T11:04:48;5.30;99.90
2851;DHT22;1433;49.976;8.342;2023-03-11T11:12:55;5.80;99.90
2851;DHT22;1433;49.976;8.342;2023-03-11T11:15:25;5.70;99.90
2851;DHT22;1433;49.976;8.342;2023-03-11T11:17:53;5.50;99.90
2851;DHT22;1433;49.976;8.342;2023-03-11T11:20:22;5.60;99.90
2851;DHT22;1433;49.976;8.342;2023-03-11T11:23:00;5.70;99.90
2851;DHT22;1433;49.976;8.342;2023-03-11T11:28:03;5.30;99.90
2851;DHT22;1433;49.976;8.342;2023-03-11T11:30:30;5.30;99.90
2851;DHT22;1433;49.976;8.342;2023-03-11T11:33:06;5.40;99.90
2851;DHT22;1433;49.976;8.342;2023-03-11T11:35:26;5.40;99.90
2851;DHT22;1433;49.976;8.342;2023-03-11T11:37:55;5.20;99.90
2851;DHT22;1433;49.976;8.342;2023-03-11T11:40:25;4.90;99.90
2851;DHT22;1433;49.976;8.342;2023-03-11T11:42:55;5.40;99.90
2851;DHT22;1433;49.976;8.342;2023-03-11T11:45:36;5.60;99.90
2851;DHT22;1433;49.976;8.342;2023-03-11T11:50:42;5.60;99.90
2851;DHT22;1433;49.976;8.342;2023-03-11T11:56:26;6.10;99.90
2851;DHT22;1433;49.976;8.342;2023-03-11T11:58:52;5.60;99.90
2851;DHT22;1433;49.976;8.342;2023-03-11T12:12:16;6.20;99.90
2851;DHT22;1433;49.976;8.342;2023-03-11T12:14:46;6.60;99.90
2851;DHT22;1433;49.976;8.342;2023-03-11T12:17:12;6.80;99.90
2851;DHT22;1433;49.976;8.342;2023-03-11T12:30:27;8.50;99.90
2851;DHT22;1433;49.976;8.342;2023-03-11T12:33:05;8.90;99.90
2851;DHT22;1433;49.976;8.342;2023-03-11T12:35:33;7.40;99.90
2851;DHT22;1433;49.976;8.342;2023-03-11T12:43:55;6.40;99.90
2851;DHT22;1433;49.976;8.342;2023-03-11T12:45:56;6.30;99.90
2851;DHT22;1433;49.976;8.342;2023-03-11T12:51:02;5.90;99.90
2851;DHT22;1433;49.976;8.342;2023-03-11T12:53:48;6.10;99.90
2851;DHT22;1433;49.976;8.342;2023-03-11T12:56:25;6.70;99.90
2851;DHT22;1433;49.976;8.342;2023-03-11T13:04:55;5.80;99.90
2851;DHT22;1433;49.976;8.342;2023-03-11T13:07:40;6.20;99.90
2851;DHT22;1433;49.976;8.342;2023-03-11T13:12:55;5.50;99.90
2851;DHT22;1433;49.976;8.342;2023-03-11T13:15:25;5.60;99.90
2851;DHT22;1433;49.976;8.342;2023-03-11T13:20:42;5.30;99.90
2851;DHT22;1433;49.976;8.342;2023-03-11T13:33:30;5.10;99.90
2851;DHT22;1433;49.976;8.342;2023-03-11T13:36:24;5.10;99.90
2851;DHT22;1433;49.976;8.342;2023-03-11T13:38:53;5.20;99.90
2851;DHT22;1433;49.976;8.342;2023-03-11T13:41:15;5.40;99.90
2851;DHT22;1433;49.976;8.342;2023-03-11T13:43:47;5.40;99.90
2851;DHT22;1433;49.976;8.342;2023-03-11T13:46:22;5.90;99.90
2851;DHT22;1433;49.976;8.342;2023-03-11T13:48:46;6.00;99.90
2851;DHT22;1433;49.976;8.342;2023-03-11T13:51:16;5.80;99.90
2851;DHT22;1433;49.976;8.342;2023-03-11T13:56:23;5.30;99.90
2851;DHT22;1433;49.976;8.342;2023-03-11T13:58:49;5.20;99.90
2851;DHT22;1433;49.976;8.342;2023-03-11T14:01:16;5.40;99.90
2851;DHT22;1433;49.976;8.342;2023-03-11T14:03:45;5.30;99.90
2851;DHT22;1433;49.976;8.342;2023-03-11T14:06:18;5.30;99.90
2851;DHT22;1433;49.976;8.342;2023-03-11T14:08:53;5.40;99.90
2851;DHT22;1433;49.976;8.342;2023-03-11T14:11:25;5.60;99.90
2851;DHT22;1433;49.976;8.342;2023-03-11T14:13:52;5.30;99.90
2851;DHT22;1433;49.976;8.342;2023-03-11T14:16:21;5.10;99.90
2851;DHT22;1433;49.976;8.342;2023-03-11T14:19:05;5.20;99.90
2851;DHT22;1433;49.976;8.342;2023-03-11T14:21:42;5.60;99.90
2851;DHT22;1433;49.976;8.342;2023-03-11T14:24:17;5.50;99.90
2851;DHT22;1433;49.976;8.342;2023-03-11T14:26:45;5.60;99.90
2851;DHT22;1433;49.976;8.342;2023-03-11T14:29:17;5.80;99.90
2851;DHT22;1433;49.976;8.342;2023-03-11T14:31:45;5.60;99.90
2851;DHT22;1433;49.976;8.342;2023-03-11T14:36:44;5.50;99.90
2851;DHT22;1433;49.976;8.342;2023-03-11T14:39:32;6.10;99.90
2851;DHT22;1433;49.976;8.342;2023-03-11T14:42:26;5.70;99.90
2851;DHT22;1433;49.976;8.342;2023-03-11T14:45:01;6.00;99.90
2851;DHT22;1433;49.976;8.342;2023-03-11T14:47:37;6.50;99.90
2851;DHT22;1433;49.976;8.342;2023-03-11T14:50:13;6.70;99.90
2851;DHT22;1433;49.976;8.342;2023-03-11T14:55:34;6.90;99.90
2851;DHT22;1433;49.976;8.342;2023-03-11T14:58:03;7.10;99.90
2851;DHT22;1433;49.976;8.342;2023-03-11T15:00:36;7.20;99.90
2851;DHT22;1433;49.976;8.342;2023-03-11T15:06:11;7.60;99.90
2851;DHT22;1433;49.976;8.342;2023-03-11T15:08:46;7.10;99.90
2851;DHT22;1433;49.976;8.342;2023-03-11T15:13:44;7.10;99.90
2851;DHT22;1433;49.976;8.342;2023-03-11T15:16:33;7.30;99.90
2851;DHT22;1433;49.976;8.342;2023-03-11T15:19:20;7.20;99.90
2851;DHT22;1433;49.976;8.342;2023-03-11T15:21:49;7.30;99.90
2851;DHT22;1433;49.976;8.342;2023-03-11T15:24:25;7.20;99.90
2851;DHT22;1433;49.976;8.342;2023-03-11T15:26:57;6.60;99.90
2851;DHT22;1433;49.976;8.342;2023-03-11T15:29:25;6.30;99.90
2851;DHT22;1433;49.976;8.342;2023-03-11T15:31:52;6.70;99.90
2851;DHT22;1433;49.976;8.342;2023-03-11T15:34:30;7.70;99.90
2851;DHT22;1433;49.976;8.342;2023-03-11T15:37:02;8.20;99.90
2851;DHT22;1433;49.976;8.342;2023-03-11T15:45:02;10.30;99.90
2851;DHT22;1433;49.976;8.342;2023-03-11T15:47:29;10.60;99.90
2851;DHT22;1433;49.976;8.342;2023-03-11T15:49:56;10.70;99.90
2851;DHT22;1433;49.976;8.342;2023-03-11T15:52:22;10.20;99.90
2851;DHT22;1433;49.976;8.342;2023-03-11T15:54:48;10.20;99.90
2851;DHT22;1433;49.976;8.342;2023-03-11T15:57:23;9.90;99.90
2851;DHT22;1433;49.976;8.342;2023-03-11T15:59:53;9.90;99.90
2851;DHT22;1433;49.976;8.342;2023-03-11T16:02:23;9.70;99.90
2851;DHT22;1433;49.976;8.342;2023-03-11T16:04:50;9.10;99.90
2851;DHT22;1433;49.976;8.342;2023-03-11T16:07:17;8.80;99.90
2851;DHT22;1433;49.976;8.342;2023-03-11T16:09:43;8.20;99.90
2851;DHT22;1433;49.976;8.342;2023-03-11T16:12:16;8.10;99.90
2851;DHT22;1433;49.976;8.342;2023-03-11T16:14:43;7.90;99.90
2851;DHT22;1433;49.976;8.342;2023-03-11T16:17:09;7.60;99.90
2851;DHT22;1433;49.976;8.342;2023-03-11T16:19:37;7.30;99.90
2851;DHT22;1433;49.976;8.342;2023-03-11T16:22:03;7.10;99.90
2851;DHT22;1433;49.976;8.342;2023-03-11T16:24:29;6.80;99.90
2851;DHT22;1433;49.976;8.342;2023-03-11T16:26:56;6.70;99.90
2851;DHT22;1433;49.976;8.342;2023-03-11T16:29:22;6.40;99.90
2851;DHT22;1433;49.976;8.342;2023-03-11T16:31:48;6.30;99.90
2851;DHT22;1433;49.976;8.342;2023-03-11T16:34:14;6.40;99.90
2851;DHT22;1433;49.976;8.342;2023-03-11T16:36:40;6.40;99.90
2851;DHT22;1433;49.976;8.342;2023-03-11T16:39:07;6.40;99.90
2851;DHT22;1433;49.976;8.342;2023-03-11T16:41:41;6.40;99.90
2851;DHT22;1433;49.976;8.342;2023-03-11T16:44:08;6.30;99.90
2851;DHT22;1433;49.976;8.342;2023-03-11T16:46:34;6.20;99.90
2851;DHT22;1433;49.976;8.342;2023-03-11T16:49:00;6.20;99.90
2851;DHT22;1433;49.976;8.342;2023-03-11T16:51:26;6.10;99.90
2851;DHT22;1433;49.976;8.342;2023-03-11T16:53:52;6.00;99.90
2851;DHT22;1433;49.976;8.342;2023-03-11T16:56:19;5.90;99.90
2851;DHT22;1433;49.976;8.342;2023-03-11T16:58:46;5.80;99.90
2851;DHT22;1433;49.976;8.342;2023-03-11T17:01:14;5.60;99.90
2851;DHT22;1433;49.976;8.342;2023-03-11T17:03:41;5.50;99.90
2851;DHT22;1433;49.976;8.342;2023-03-11T17:06:08;5.30;99.90
2851;DHT22;1433;49.976;8.342;2023-03-11T17:08:34;5.20;99.90
2851;DHT22;1433;49.976;8.342;2023-03-11T17:11:00;5.10;99.90
2851;DHT22;1433;49.976;8.342;2023-03-11T17:13:26;5.00;99.90
2851;DHT22;1433;49.976;8.342;2023-03-11T17:16:00;4.90;99.90
2851;DHT22;1433;49.976;8.342;2023-03-11T17:18:27;4.80;99.90
2851;DHT22;1433;49.976;8.342;2023-03-11T17:20:54;4.70;99.90
2851;DHT22;1433;49.976;8.342;2023-03-11T17:23:22;4.50;99.90
2851;DHT22;1433;49.976;8.342;2023-03-11T17:25:50;4.40;99.90
2851;DHT22;1433;49.976;8.342;2023-03-11T17:28:16;4.20;99.90
2851;DHT22;1433;49.976;8.342;2023-03-11T17:30:43;4.10;99.90
2851;DHT22;1433;49.976;8.342;2023-03-11T17:33:09;3.90;99.90
2851;DHT22;1433;49.976;8.342;2023-03-11T17:35:35;3.80;99.90
2851;DHT22;1433;49.976;8.342;2023-03-11T17:38:02;3.70;99.90
2851;DHT22;1433;49.976;8.342;2023-03-11T17:40:28;3.60;99.90
2851;DHT22;1433;49.976;8.342;2023-03-11T17:42:56;3.40;99.90
2851;DHT22;1433;49.976;8.342;2023-03-11T17:45:27;3.30;99.90
2851;DHT22;1433;49.976;8.342;2023-03-11T17:47:54;3.20;99.90
2851;DHT22;1433;49.976;8.342;2023-03-11T17:50:18;3.10;99.90
2851;DHT22;1433;49.976;8.342;2023-03-11T17:52:45;3.00;99.90
2851;DHT22;1433;49.976;8.342;2023-03-11T17:55:11;2.90;99.90
2851;DHT22;1433;49.976;8.342;2023-03-11T17:57:37;2.90;99.90
2851;DHT22;1433;49.976;8.342;2023-03-11T18:00:04;2.80;99.90
2851;DHT22;1433;49.976;8.342;2023-03-11T18:02:32;2.70;99.90
2851;DHT22;1433;49.976;8.342;2023-03-11T18:04:58;2.60;99.90
2851;DHT22;1433;49.976;8.342;2023-03-11T18:07:24;2.50;99.90
2851;DHT22;1433;49.976;8.342;2023-03-11T18:09:52;2.50;99.90
2851;DHT22;1433;49.976;8.342;2023-03-11T18:12:19;2.40;99.90
2851;DHT22;1433;49.976;8.342;2023-03-11T18:14:45;2.40;99.90
2851;DHT22;1433;49.976;8.342;2023-03-11T18:17:11;2.30;99.90
2851;DHT22;1433;49.976;8.342;2023-03-11T18:19:37;2.20;99.90
2851;DHT22;1433;49.976;8.342;2023-03-11T18:22:03;2.20;99.90
2851;DHT22;1433;49.976;8.342;2023-03-11T18:24:30;2.20;99.90